Time;durP1;ratioP1;P1;durP2;ratioP2;P2;SDS_P1;SDS_P2;PMS_P1;PMS_P2;Temp;Humidity;BMP_temperature;BMP_pressure;BME280_temperature;BME280_humidity;BME280_pressure;Samples;Min_cycle;Max_cycle;Signal;HPM_P1;HPM_P2
2022/11/14 00:00:52;;;;;;;8.55;4.60;;;;;;;;;;6201304;23;20184;-91
2022/11/14 00:04:16;;;;;;;9.45;5.05;;;;;;;;;;6197979;23;20489;-91
2022/11/14 00:07:40;;;;;;;10.25;4.50;;;;;;;;;;6198119;23;20159;-92
2022/11/14 00:11:05;;;;;;;9.07;5.00;;;;;;;;;;6198167;23;20180;-89
2022/11/14 00:14:31;;;;;;;7.93;4.65;;;;;;;;;;6210174;23;20192;-89
2022/11/14 00:17:56;;;;;;;7.72;4.45;;;;;;;;;;6196983;23;20172;-88
2022/11/14 00:21:20;;;;;;;10.38;4.97;;;;;;;;;;6199383;23;20179;-90
2022/11/14 00:24:44;;;;;;;9.00;4.53;;;;;;;;;;6198685;23;20615;-92
2022/11/14 00:28:09;;;;;;;11.15;5.40;;;;;;;;;;6197519;23;20168;-88
2022/11/14 00:31:34;;;;;;;9.13;4.85;;;;;;;;;;6197410;23;20192;-88
2022/11/14 00:34:59;;;;;;;10.82;5.78;;;;;;;;;;6196751;23;20320;-92
2022/11/14 00:38:23;;;;;;;14.88;5.05;;;;;;;;;;6196288;23;20219;-89
2022/11/14 00:41:47;;;;;;;8.27;4.88;;;;;;;;;;6196317;23;20171;-92
2022/11/14 00:49:34;;;;;;;11.30;5.22;;;;;;;;;;6199567;23;20175;-87
2022/11/14 00:52:58;;;;;;;9.45;5.13;;;;;;;;;;6197756;23;20168;-89
2022/11/14 00:56:23;;;;;;;8.65;5.10;;;;;;;;;;6166415;23;20647;-91
2022/11/14 00:59:47;;;;;;;8.57;5.25;;;;;;;;;;6165502;23;20197;-91
2022/11/14 01:03:11;;;;;;;7.22;4.40;;;;;;;;;;6166723;23;20169;-86
2022/11/14 01:06:36;;;;;;;8.25;4.47;;;;;;;;;;6168174;23;20219;-89
2022/11/14 01:10:00;;;;;;;11.93;5.40;;;;;;;;;;6167406;23;20216;-87
2022/11/14 01:13:24;;;;;;;10.60;5.25;;;;;;;;;;6166493;23;20169;-91
2022/11/14 01:16:48;;;;;;;12.00;5.38;;;;;;;;;;6168003;23;20192;-88
2022/11/14 01:20:12;;;;;;;11.13;5.25;;;;;;;;;;6167121;23;20197;-88
2022/11/14 01:23:38;;;;;;;10.05;5.72;;;;;;;;;;6166884;23;20153;-90
2022/11/14 01:27:03;;;;;;;10.68;5.07;;;;;;;;;;6167338;23;20212;-92
2022/11/14 01:30:27;;;;;;;9.95;5.25;;;;;;;;;;6168312;23;20173;-88
2022/11/14 01:33:51;;;;;;;8.50;5.10;;;;;;;;;;6176415;23;20165;-88
2022/11/14 01:37:15;;;;;;;9.40;5.13;;;;;;;;;;6166749;23;20172;-91
2022/11/14 01:40:43;;;;;;;9.10;4.70;;;;;;;;;;6167889;23;20184;-87
2022/11/14 01:44:12;;;;;;;13.18;5.60;;;;;;;;;;6165025;23;20180;-87
2022/11/14 01:47:36;;;;;;;10.13;5.50;;;;;;;;;;6167168;23;20220;-91
2022/11/14 01:51:01;;;;;;;10.25;5.60;;;;;;;;;;6167369;23;20192;-90
2022/11/14 01:54:27;;;;;;;10.30;5.45;;;;;;;;;;6165233;23;20164;-92
2022/11/14 01:57:52;;;;;;;9.82;4.63;;;;;;;;;;6166090;23;20204;-89
2022/11/14 02:01:17;;;;;;;8.07;4.53;;;;;;;;;;6167155;23;20189;-88
2022/11/14 02:04:43;;;;;;;9.50;5.20;;;;;;;;;;6165858;23;20188;-92
2022/11/14 02:08:07;;;;;;;11.43;5.07;;;;;;;;;;6166711;23;20610;-91
2022/11/14 02:11:33;;;;;;;9.68;4.80;;;;;;;;;;6166248;23;20196;-90
2022/11/14 02:14:59;;;;;;;7.40;4.20;;;;;;;;;;6165376;23;20501;-88
2022/11/14 02:18:23;;;;;;;11.18;5.00;;;;;;;;;;6165178;23;20164;-90
2022/11/14 02:21:48;;;;;;;9.70;5.00;;;;;;;;;;6164819;23;20238;-90
2022/11/14 02:25:15;;;;;;;9.57;5.18;;;;;;;;;;6163752;23;20172;-89
2022/11/14 02:28:39;;;;;;;9.90;5.03;;;;;;;;;;6166054;23;20181;-89
2022/11/14 02:32:04;;;;;;;12.68;4.47;;;;;;;;;;6164298;23;20200;-90
2022/11/14 02:35:28;;;;;;;8.25;4.30;;;;;;;;;;6164809;23;20237;-91
2022/11/14 02:38:54;;;;;;;8.02;4.32;;;;;;;;;;6164645;23;20196;-87
2022/11/14 02:42:17;;;;;;;7.95;4.25;;;;;;;;;;6164739;23;20606;-89
2022/11/14 02:45:45;;;;;;;8.45;4.65;;;;;;;;;;6164008;23;20204;-89
2022/11/14 02:49:08;;;;;;;7.22;4.53;;;;;;;;;;6164447;23;20224;-87
2022/11/14 02:52:32;;;;;;;8.68;4.68;;;;;;;;;;6166670;23;20221;-90
2022/11/14 02:55:58;;;;;;;10.43;5.03;;;;;;;;;;6167443;23;20177;-91
2022/11/14 02:59:22;;;;;;;9.85;4.65;;;;;;;;;;6166677;23;20181;-91
2022/11/14 03:02:46;;;;;;;9.65;4.60;;;;;;;;;;6167130;23;20184;-91
2022/11/14 03:06:10;;;;;;;15.88;5.07;;;;;;;;;;6166164;23;20169;-89
2022/11/14 03:09:34;;;;;;;14.20;5.30;;;;;;;;;;6166830;23;20169;-88
2022/11/14 03:13:00;;;;;;;9.20;5.13;;;;;;;;;;6167005;23;20714;-90
2022/11/14 03:16:24;;;;;;;12.70;5.35;;;;;;;;;;6167384;23;20177;-88
2022/11/14 03:19:48;;;;;;;8.55;4.82;;;;;;;;;;6167073;23;20174;-90
2022/11/14 03:23:12;;;;;;;10.07;4.95;;;;;;;;;;6166593;23;20180;-87
2022/11/14 03:26:36;;;;;;;8.70;4.90;;;;;;;;;;6167429;23;20176;-89
2022/11/14 03:30:01;;;;;;;12.93;5.38;;;;;;;;;;6172188;23;20177;-91
2022/11/14 03:33:25;;;;;;;9.30;5.10;;;;;;;;;;6169734;23;20224;-87
2022/11/14 03:36:49;;;;;;;13.93;5.95;;;;;;;;;;6170690;23;20612;-89
2022/11/14 03:40:13;;;;;;;10.60;5.25;;;;;;;;;;6172192;23;20554;-89
2022/11/14 03:43:38;;;;;;;10.07;5.03;;;;;;;;;;6170164;23;20160;-91
2022/11/14 03:51:24;;;;;;;9.98;5.43;;;;;;;;;;6169558;23;20222;-90
2022/11/14 03:54:49;;;;;;;20.95;5.93;;;;;;;;;;6169786;23;20177;-87
2022/11/14 03:58:13;;;;;;;10.85;5.35;;;;;;;;;;6171025;23;20188;-91
2022/11/14 04:01:37;;;;;;;10.85;5.50;;;;;;;;;;6170745;23;20184;-90
2022/11/14 04:05:02;;;;;;;10.32;5.13;;;;;;;;;;6171077;23;20184;-88
2022/11/14 04:08:27;;;;;;;8.45;4.60;;;;;;;;;;6170983;23;20176;-88
2022/11/14 04:11:51;;;;;;;9.88;4.85;;;;;;;;;;6170790;23;20736;-89
2022/11/14 04:15:15;;;;;;;36.75;10.00;;;;;;;;;;6171926;23;20169;-89
2022/11/14 04:18:40;;;;;;;14.30;5.32;;;;;;;;;;6170714;23;20185;-88
2022/11/14 04:22:03;;;;;;;8.45;4.68;;;;;;;;;;6171376;23;20169;-90
2022/11/14 04:25:29;;;;;;;10.32;4.90;;;;;;;;;;6170732;23;20169;-88
2022/11/14 04:28:53;;;;;;;10.00;4.75;;;;;;;;;;6169077;23;20192;-90
2022/11/14 04:32:17;;;;;;;8.25;4.40;;;;;;;;;;6171695;23;20212;-91
2022/11/14 04:35:42;;;;;;;10.13;4.97;;;;;;;;;;6169988;23;20164;-90
2022/11/14 04:39:06;;;;;;;9.20;4.97;;;;;;;;;;6170593;23;20180;-89
2022/11/14 04:42:32;;;;;;;8.13;4.32;;;;;;;;;;6170615;23;20169;-90
2022/11/14 04:45:56;;;;;;;9.70;4.50;;;;;;;;;;6169057;23;20176;-89
2022/11/14 04:49:21;;;;;;;11.45;4.60;;;;;;;;;;6171208;23;20196;-89
2022/11/14 04:52:46;;;;;;;13.43;5.40;;;;;;;;;;6169468;23;20188;-89
2022/11/14 04:56:10;;;;;;;9.02;5.03;;;;;;;;;;6170591;23;20196;-91
2022/11/14 04:59:35;;;;;;;10.95;5.03;;;;;;;;;;6169783;23;20200;-89
2022/11/14 05:03:18;;;;;;;9.50;5.00;;;;;;;;;;6168693;23;20188;-89
2022/11/14 05:06:42;;;;;;;11.13;4.90;;;;;;;;;;6171070;23;20169;-91
2022/11/14 05:10:06;;;;;;;12.85;5.38;;;;;;;;;;6173010;23;20165;-92
2022/11/14 05:13:31;;;;;;;11.52;5.00;;;;;;;;;;6170918;23;20315;-89
2022/11/14 05:16:58;;;;;;;11.45;4.97;;;;;;;;;;6173101;23;20168;-90
2022/11/14 05:20:21;;;;;;;10.15;4.95;;;;;;;;;;6170967;23;20173;-89
2022/11/14 05:23:45;;;;;;;14.40;5.75;;;;;;;;;;6170455;23;20188;-90
2022/11/14 05:27:10;;;;;;;9.37;5.17;;;;;;;;;;6170502;23;20224;-89
2022/11/14 05:30:33;;;;;;;10.20;4.93;;;;;;;;;;6172738;23;20165;-92
2022/11/14 05:33:59;;;;;;;11.87;5.60;;;;;;;;;;6170968;23;20218;-93
2022/11/14 05:37:23;;;;;;;10.55;5.65;;;;;;;;;;6172058;23;20245;-92
2022/11/14 05:40:48;;;;;;;10.27;5.07;;;;;;;;;;6173403;23;20164;-88
2022/11/14 05:44:12;;;;;;;9.25;5.40;;;;;;;;;;6172815;23;20160;-92
2022/11/14 05:47:41;;;;;;;11.80;5.47;;;;;;;;;;6171810;23;20242;-89
2022/11/14 05:51:08;;;;;;;10.30;5.53;;;;;;;;;;6170909;23;20185;-89
2022/11/14 05:54:32;;;;;;;15.70;5.88;;;;;;;;;;6170136;23;20169;-91
2022/11/14 05:57:58;;;;;;;12.57;5.43;;;;;;;;;;6171093;23;20176;-88
2022/11/14 06:01:22;;;;;;;12.93;5.22;;;;;;;;;;6169169;23;20226;-90
2022/11/14 06:04:46;;;;;;;10.63;5.33;;;;;;;;;;6170522;23;20665;-86
2022/11/14 06:08:12;;;;;;;15.65;6.15;;;;;;;;;;6170805;23;20250;-89
2022/11/14 06:11:37;;;;;;;14.57;6.17;;;;;;;;;;6171221;23;20184;-88
2022/11/14 06:15:00;;;;;;;17.70;6.90;;;;;;;;;;6171805;23;20242;-90
2022/11/14 06:18:24;;;;;;;14.53;6.43;;;;;;;;;;6172886;23;20237;-89
2022/11/14 06:21:49;;;;;;;13.13;6.60;;;;;;;;;;6170351;23;20168;-89
2022/11/14 06:25:14;;;;;;;12.63;6.10;;;;;;;;;;6172603;23;20152;-90
2022/11/14 06:28:38;;;;;;;16.00;6.57;;;;;;;;;;6174037;23;20165;-90
2022/11/14 06:32:02;;;;;;;15.63;6.43;;;;;;;;;;6172111;23;20152;-89
2022/11/14 06:35:27;;;;;;;12.40;6.20;;;;;;;;;;6175090;23;20181;-88
2022/11/14 06:38:57;;;;;;;19.83;6.73;;;;;;;;;;6175626;23;20308;-89
2022/11/14 06:42:23;;;;;;;15.50;6.30;;;;;;;;;;6176733;23;20176;-90
2022/11/14 06:46:21;;;;;;;19.47;6.10;;;;;;;;;;6174136;23;20165;-88
2022/11/14 06:49:45;;;;;;;17.40;6.90;;;;;;;;;;6174254;23;20164;-92
2022/11/14 06:53:09;;;;;;;17.25;6.00;;;;;;;;;;6174414;23;20219;-88
2022/11/14 06:56:34;;;;;;;17.83;6.63;;;;;;;;;;6175559;23;20232;-90
2022/11/14 07:00:00;;;;;;;21.00;7.10;;;;;;;;;;6175881;23;20169;-91
2022/11/14 07:03:30;;;;;;;16.33;6.53;;;;;;;;;;6175155;23;20217;-89
2022/11/14 07:10:32;;;;;;;20.67;7.37;;;;;;;;;;6174879;23;20169;-90
2022/11/14 07:13:57;;;;;;;17.73;7.17;;;;;;;;;;6174837;23;20196;-89
2022/11/14 07:17:26;;;;;;;20.23;6.73;;;;;;;;;;6174058;23;20242;-89
2022/11/14 07:20:55;;;;;;;16.40;7.13;;;;;;;;;;6174229;23;20173;-89
2022/11/14 07:24:19;;;;;;;22.27;7.80;;;;;;;;;;6173027;23;20228;-90
2022/11/14 07:27:43;;;;;;;21.57;6.80;;;;;;;;;;6173927;23;20196;-91
2022/11/14 07:31:08;;;;;;;21.57;7.87;;;;;;;;;;6173582;23;20168;-89
2022/11/14 07:34:36;;;;;;;19.17;6.63;;;;;;;;;;6174081;23;20156;-89
2022/11/14 07:38:04;;;;;;;19.63;7.27;;;;;;;;;;6173410;23;20152;-87
2022/11/14 07:41:29;;;;;;;21.40;7.77;;;;;;;;;;6174044;23;20172;-89
2022/11/14 07:44:53;;;;;;;22.10;7.27;;;;;;;;;;6172761;23;20160;-89
2022/11/14 07:48:17;;;;;;;20.23;7.33;;;;;;;;;;6173446;23;20216;-89
2022/11/14 07:51:43;;;;;;;16.83;7.20;;;;;;;;;;6175539;23;20169;-90
2022/11/14 07:55:07;;;;;;;25.67;7.93;;;;;;;;;;6172615;23;20172;-90
2022/11/14 07:58:32;;;;;;;20.80;7.70;;;;;;;;;;6176310;23;20604;-89
2022/11/14 08:01:56;;;;;;;19.42;6.30;;;;;;;;;;6176206;23;20176;-89
2022/11/14 08:05:21;;;;;;;17.00;6.53;;;;;;;;;;6177012;23;20177;-91
2022/11/14 08:08:47;;;;;;;19.95;7.15;;;;;;;;;;6177408;23;20217;-87
2022/11/14 08:12:12;;;;;;;19.25;6.78;;;;;;;;;;6174764;23;20176;-89
2022/11/14 08:15:37;;;;;;;15.70;6.38;;;;;;;;;;6175415;23;20165;-89
2022/11/14 08:19:02;;;;;;;16.83;6.90;;;;;;;;;;6175842;23;20192;-90
2022/11/14 08:22:26;;;;;;;15.18;6.43;;;;;;;;;;6174432;23;20177;-88
2022/11/14 08:25:52;;;;;;;17.38;6.72;;;;;;;;;;6174382;23;20643;-89
2022/11/14 08:29:16;;;;;;;18.15;7.38;;;;;;;;;;6173124;23;20212;-88
2022/11/14 08:32:44;;;;;;;10.80;5.90;;;;;;;;;;6173735;23;20200;-88
2022/11/14 08:36:08;;;;;;;13.40;6.07;;;;;;;;;;6175139;23;20192;-91
2022/11/14 08:39:32;;;;;;;15.82;6.93;;;;;;;;;;6172128;23;20168;-91
2022/11/14 08:43:01;;;;;;;16.15;6.28;;;;;;;;;;6171739;23;20196;-88
2022/11/14 08:46:34;;;;;;;14.38;5.35;;;;;;;;;;6172691;23;20183;-89
2022/11/14 08:49:58;;;;;;;12.13;5.63;;;;;;;;;;6172501;23;20237;-89
2022/11/14 08:53:23;;;;;;;13.35;5.90;;;;;;;;;;6173422;23;20191;-89
2022/11/14 08:56:48;;;;;;;10.55;4.63;;;;;;;;;;6173481;23;20702;-90
2022/11/14 09:00:14;;;;;;;11.68;4.93;;;;;;;;;;6173130;23;20169;-91
2022/11/14 09:03:39;;;;;;;12.63;5.32;;;;;;;;;;6171945;23;20292;-90
2022/11/14 09:07:03;;;;;;;11.48;5.00;;;;;;;;;;6172492;23;20220;-90
2022/11/14 09:10:27;;;;;;;15.27;4.50;;;;;;;;;;6173096;23;20177;-90
2022/11/14 09:13:53;;;;;;;10.43;4.57;;;;;;;;;;6171879;23;20281;-89
2022/11/14 09:17:19;;;;;;;9.98;4.68;;;;;;;;;;6172677;23;20192;-91
2022/11/14 09:20:44;;;;;;;9.95;5.32;;;;;;;;;;6176868;23;20169;-91
2022/11/14 09:24:10;;;;;;;9.15;4.82;;;;;;;;;;6177320;23;20197;-90
2022/11/14 09:27:35;;;;;;;8.63;3.75;;;;;;;;;;6174540;23;20184;-91
2022/11/14 09:31:04;;;;;;;7.10;3.63;;;;;;;;;;6173427;23;20192;-88
2022/11/14 09:34:34;;;;;;;9.20;4.63;;;;;;;;;;6174893;23;20211;-88
2022/11/14 09:38:03;;;;;;;9.70;4.35;;;;;;;;;;6176422;23;20172;-91
2022/11/14 09:41:28;;;;;;;10.20;4.72;;;;;;;;;;6175066;23;20167;-92
2022/11/14 09:45:01;;;;;;;11.70;4.63;;;;;;;;;;6174770;23;20169;-89
2022/11/14 09:48:29;;;;;;;10.52;4.05;;;;;;;;;;6174371;23;20192;-91
2022/11/14 09:51:59;;;;;;;15.27;4.85;;;;;;;;;;6177098;23;20188;-91
2022/11/14 09:55:24;;;;;;;9.27;4.20;;;;;;;;;;6176339;23;20172;-89
2022/11/14 09:58:49;;;;;;;9.25;4.18;;;;;;;;;;6174871;23;20251;-90
2022/11/14 10:02:24;;;;;;;9.43;4.60;;;;;;;;;;6176456;23;20196;-91
2022/11/14 10:06:03;;;;;;;12.45;4.72;;;;;;;;;;6175983;23;20566;-89
2022/11/14 10:09:43;;;;;;;12.32;5.03;;;;;;;;;;6178298;23;20212;-89
2022/11/14 10:13:22;;;;;;;12.75;4.70;;;;;;;;;;6176948;23;20219;-89
2022/11/14 10:16:52;;;;;;;10.18;4.32;;;;;;;;;;6177445;23;20161;-92
2022/11/14 10:20:22;;;;;;;6.75;3.40;;;;;;;;;;6176412;23;20172;-90
2022/11/14 10:23:52;;;;;;;8.90;3.60;;;;;;;;;;6176695;23;20196;-90
2022/11/14 10:27:20;;;;;;;8.25;3.55;;;;;;;;;;6177214;23;20153;-89
2022/11/14 10:30:55;;;;;;;7.82;4.05;;;;;;;;;;6176282;23;20168;-89
2022/11/14 10:34:25;;;;;;;7.70;3.85;;;;;;;;;;6177434;23;20196;-89
2022/11/14 10:37:53;;;;;;;7.97;3.92;;;;;;;;;;6172876;23;20233;-88
2022/11/14 10:41:18;;;;;;;7.72;4.30;;;;;;;;;;6172126;23;20172;-90
2022/11/14 10:44:46;;;;;;;7.55;4.13;;;;;;;;;;6170694;23;20173;-89
2022/11/14 10:48:14;;;;;;;6.22;3.00;;;;;;;;;;6172157;23;20203;-89
2022/11/14 10:51:40;;;;;;;5.95;3.08;;;;;;;;;;6171742;23;20177;-89
2022/11/14 10:55:07;;;;;;;7.00;3.58;;;;;;;;;;6170955;23;20193;-88
2022/11/14 10:58:31;;;;;;;5.50;3.08;;;;;;;;;;6170737;23;20173;-90
2022/11/14 11:01:56;;;;;;;10.77;3.80;;;;;;;;;;6171766;23;20177;-90
2022/11/14 11:05:23;;;;;;;6.05;3.72;;;;;;;;;;6173223;23;20168;-90
2022/11/14 11:12:41;;;;;;;5.55;3.20;;;;;;;;;;6170445;23;20181;-92
2022/11/14 11:16:11;;;;;;;4.88;2.92;;;;;;;;;;6170817;23;20185;-91
2022/11/14 11:19:35;;;;;;;5.70;3.00;;;;;;;;;;6171970;23;20170;-90
2022/11/14 11:23:06;;;;;;;6.60;3.17;;;;;;;;;;6172010;23;20165;-92
2022/11/14 11:26:31;;;;;;;4.28;2.63;;;;;;;;;;6170740;23;20192;-92
2022/11/14 11:30:09;;;;;;;7.07;3.00;;;;;;;;;;6171965;23;20224;-91
2022/11/14 11:33:34;;;;;;;10.23;2.90;;;;;;;;;;6171838;23;20228;-90
2022/11/14 11:37:00;;;;;;;5.43;3.00;;;;;;;;;;6173928;23;20169;-89
2022/11/14 11:40:27;;;;;;;6.38;3.15;;;;;;;;;;6171024;23;20185;-91
2022/11/14 11:43:55;;;;;;;4.57;2.63;;;;;;;;;;6170493;23;20173;-90
2022/11/14 11:47:19;;;;;;;7.45;3.50;;;;;;;;;;6170748;23;20500;-91
2022/11/14 11:50:43;;;;;;;8.60;3.67;;;;;;;;;;6171757;23;20173;-90
2022/11/14 11:54:12;;;;;;;8.10;3.38;;;;;;;;;;6171597;23;20183;-90
2022/11/14 11:57:42;;;;;;;6.43;3.05;;;;;;;;;;6171912;23;20211;-93
2022/11/14 12:01:06;;;;;;;6.30;3.65;;;;;;;;;;6171365;23;20169;-91
2022/11/14 12:04:31;;;;;;;12.88;4.03;;;;;;;;;;6172633;23;20284;-92
2022/11/14 12:07:59;;;;;;;17.05;3.10;;;;;;;;;;6171366;23;20534;-92
2022/11/14 12:11:25;;;;;;;8.10;2.80;;;;;;;;;;6172305;23;20229;-91
2022/11/14 12:14:56;;;;;;;13.13;3.95;;;;;;;;;;6172771;23;20698;-91
2022/11/14 12:18:45;;;;;;;10.43;2.95;;;;;;;;;;6172745;23;20173;-89
2022/11/14 12:22:15;;;;;;;6.13;3.03;;;;;;;;;;6175779;23;20230;-90
2022/11/14 12:25:44;;;;;;;7.63;3.13;;;;;;;;;;6175354;23;20620;-93
2022/11/14 12:29:18;;;;;;;10.90;3.88;;;;;;;;;;6175223;23;20252;-90
2022/11/14 12:32:46;;;;;;;5.47;2.65;;;;;;;;;;6173383;23;20181;-89
2022/11/14 12:36:12;;;;;;;5.05;2.65;;;;;;;;;;6174126;23;20176;-91
2022/11/14 12:39:37;;;;;;;4.63;2.67;;;;;;;;;;6173870;23;20237;-90
2022/11/14 12:43:03;;;;;;;4.22;2.70;;;;;;;;;;6177139;23;20546;-91
2022/11/14 12:46:28;;;;;;;8.13;3.47;;;;;;;;;;6175126;23;20168;-88
2022/11/14 12:50:30;;;;;;;4.75;2.47;;;;;;;;;;6173661;23;20165;-90
2022/11/14 12:53:55;;;;;;;8.25;2.65;;;;;;;;;;6175299;23;20626;-91
2022/11/14 13:01:09;;;;;;;4.07;2.35;;;;;;;;;;6173070;23;20241;-89
2022/11/14 13:04:42;;;;;;;12.48;2.70;;;;;;;;;;6174259;23;20168;-91
2022/11/14 13:08:17;;;;;;;4.22;2.40;;;;;;;;;;6173573;23;20156;-89
2022/11/14 13:23:01;;;;;;;4.55;2.35;;;;;;;;;;6175287;23;20487;-89
2022/11/14 13:26:44;;;;;;;5.22;2.53;;;;;;;;;;6169601;23;20176;-89
2022/11/14 13:30:08;;;;;;;7.85;2.70;;;;;;;;;;6169841;23;20236;-92
2022/11/14 13:33:42;;;;;;;7.10;3.15;;;;;;;;;;6172437;23;20180;-90
2022/11/14 13:37:14;;;;;;;7.35;2.65;;;;;;;;;;6173011;23;20168;-90
2022/11/14 13:40:42;;;;;;;3.65;2.10;;;;;;;;;;6172493;23;20675;-89
2022/11/14 13:44:20;;;;;;;8.55;2.70;;;;;;;;;;6173138;23;20219;-89
2022/11/14 13:47:55;;;;;;;9.90;2.30;;;;;;;;;;6174970;23;20212;-90
2022/11/14 13:51:19;;;;;;;3.85;2.28;;;;;;;;;;6172562;23;20176;-91
2022/11/14 13:54:47;;;;;;;8.25;3.10;;;;;;;;;;6174577;23;20200;-90
2022/11/14 13:58:18;;;;;;;4.57;2.53;;;;;;;;;;6172388;23;20560;-89
2022/11/14 14:01:50;;;;;;;3.85;2.45;;;;;;;;;;6172836;23;20296;-88
2022/11/14 14:05:21;;;;;;;9.35;2.78;;;;;;;;;;6173569;23;20212;-88
2022/11/14 14:08:53;;;;;;;8.02;2.95;;;;;;;;;;6173030;23;20164;-91
2022/11/14 14:12:24;;;;;;;3.92;2.33;;;;;;;;;;6175041;23;20212;-90
2022/11/14 14:15:52;;;;;;;9.48;3.92;;;;;;;;;;6171812;23;20196;-89
2022/11/14 14:19:23;;;;;;;14.57;8.23;;;;;;;;;;6171743;23;20242;-88
2022/11/14 14:22:51;;;;;;;62.80;27.48;;;;;;;;;;6173069;23;20171;-89
2022/11/14 14:26:21;;;;;;;79.47;31.55;;;;;;;;;;6173513;23;20191;-90
2022/11/14 14:29:47;;;;;;;44.92;12.80;;;;;;;;;;6174394;23;20168;-90
2022/11/14 14:33:13;;;;;;;10.88;4.50;;;;;;;;;;6170728;23;20615;-90
2022/11/14 14:36:38;;;;;;;19.10;8.70;;;;;;;;;;6170872;23;20165;-88
2022/11/14 14:40:03;;;;;;;32.75;9.88;;;;;;;;;;6172313;23;20554;-89
2022/11/14 14:43:31;;;;;;;21.55;7.55;;;;;;;;;;6169634;23;20173;-89
2022/11/14 14:47:00;;;;;;;26.90;8.43;;;;;;;;;;6176002;23;20168;-90
2022/11/14 14:50:25;;;;;;;62.60;18.60;;;;;;;;;;6174188;23;20180;-89
2022/11/14 14:53:53;;;;;;;53.63;14.90;;;;;;;;;;6175799;23;20223;-88
2022/11/14 14:57:18;;;;;;;41.63;11.63;;;;;;;;;;6173998;23;20192;-89
2022/11/14 15:00:51;;;;;;;64.50;17.85;;;;;;;;;;6174521;23;20192;-91
2022/11/14 15:04:16;;;;;;;22.63;5.72;;;;;;;;;;6174113;23;20156;-91
2022/11/14 15:07:41;;;;;;;11.18;4.30;;;;;;;;;;6174880;23;20157;-89
2022/11/14 15:11:07;;;;;;;8.52;4.28;;;;;;;;;;6174301;23;20173;-92
2022/11/14 15:14:38;;;;;;;9.10;4.82;;;;;;;;;;6175642;23;20199;-91
2022/11/14 15:18:04;;;;;;;17.98;6.60;;;;;;;;;;6174737;23;20196;-89
2022/11/14 15:21:30;;;;;;;19.55;7.40;;;;;;;;;;6174938;23;20160;-91
2022/11/14 15:25:05;;;;;;;25.27;9.98;;;;;;;;;;6174278;23;20216;-91
2022/11/14 15:28:35;;;;;;;17.85;7.63;;;;;;;;;;6173100;23;20149;-90
2022/11/14 15:32:02;;;;;;;28.75;11.38;;;;;;;;;;6174487;23;20172;-91
2022/11/14 15:35:31;;;;;;;15.63;6.18;;;;;;;;;;6172499;23;20192;-90
2022/11/14 15:38:59;;;;;;;14.23;6.25;;;;;;;;;;6173013;23;20508;-92
2022/11/14 15:42:28;;;;;;;15.30;7.85;;;;;;;;;;6174206;23;20331;-90
2022/11/14 15:45:56;;;;;;;22.70;8.23;;;;;;;;;;6170213;23;20504;-90
2022/11/14 15:49:22;;;;;;;14.27;5.50;;;;;;;;;;6171609;23;20172;-90
2022/11/14 15:52:50;;;;;;;12.02;5.03;;;;;;;;;;6172788;23;20173;-92
2022/11/14 15:56:14;;;;;;;10.35;4.72;;;;;;;;;;6172425;23;20696;-92
2022/11/14 15:59:38;;;;;;;13.57;5.70;;;;;;;;;;6173421;23;20172;-90
2022/11/14 16:03:03;;;;;;;24.52;11.80;;;;;;;;;;6174046;23;20209;-89
2022/11/14 16:06:29;;;;;;;18.45;10.80;;;;;;;;;;6174069;23;20172;-91
2022/11/14 16:09:58;;;;;;;19.13;8.43;;;;;;;;;;6175617;23;20173;-88
2022/11/14 16:13:23;;;;;;;39.65;15.45;;;;;;;;;;6171831;23;20171;-90
2022/11/14 16:16:47;;;;;;;30.80;12.52;;;;;;;;;;6174525;23;20177;-93
2022/11/14 16:20:16;;;;;;;25.38;9.80;;;;;;;;;;6171885;23;20217;-91
2022/11/14 16:23:41;;;;;;;20.92;8.48;;;;;;;;;;6171587;23;20238;-90
2022/11/14 16:27:06;;;;;;;18.40;8.30;;;;;;;;;;6172674;23;20164;-89
2022/11/14 23:10:03;;;;;;;21.27;8.00;;;;;;;;;;6132161;23;20209;-89
2022/11/14 23:13:27;;;;;;;19.17;7.80;;;;;;;;;;6171346;23;20173;-88
2022/11/14 23:16:51;;;;;;;17.13;7.57;;;;;;;;;;6170708;23;20196;-88
2022/11/14 23:20:18;;;;;;;21.00;9.10;;;;;;;;;;6172128;23;20181;-89
2022/11/14 23:23:43;;;;;;;16.33;7.47;;;;;;;;;;6171634;23;20193;-90
2022/11/14 23:27:08;;;;;;;17.00;7.50;;;;;;;;;;6170211;23;20212;-89
2022/11/14 23:30:35;;;;;;;17.27;8.23;;;;;;;;;;6170177;23;20175;-89
2022/11/14 23:33:59;;;;;;;18.27;8.33;;;;;;;;;;6171047;23;20284;-88
2022/11/14 23:37:24;;;;;;;17.67;7.70;;;;;;;;;;6170735;23;20172;-91
2022/11/14 23:40:52;;;;;;;18.77;7.93;;;;;;;;;;6170495;23;20152;-89
2022/11/14 23:44:18;;;;;;;16.90;7.80;;;;;;;;;;6169860;23;20175;-90
2022/11/14 23:47:42;;;;;;;16.03;7.33;;;;;;;;;;6169870;23;20165;-89
2022/11/14 23:51:06;;;;;;;19.57;8.07;;;;;;;;;;6171293;23;20236;-90
2022/11/14 23:54:30;;;;;;;20.53;8.10;;;;;;;;;;6168853;23;20169;-89
2022/11/14 23:57:55;;;;;;;21.47;8.03;;;;;;;;;;6170150;23;20201;-90
